createdAt,value
2022-11-04T00:02:01.455Z,37.84
2022-11-04T00:04:27.766Z,37.79
2022-11-04T00:06:54.123Z,37.90
2022-11-04T00:09:20.478Z,37.77
2022-11-04T00:11:46.865Z,37.82
2022-11-04T00:14:13.228Z,37.77
2022-11-04T00:16:39.589Z,37.83
2022-11-04T00:19:05.945Z,37.89
2022-11-04T00:21:32.311Z,37.89
2022-11-04T00:23:58.711Z,38.35
2022-11-04T00:26:25.077Z,38.35
2022-11-04T00:28:51.519Z,37.83
2022-11-04T00:31:17.915Z,37.89
2022-11-04T00:33:44.281Z,37.94
2022-11-04T00:36:10.634Z,37.91
2022-11-04T00:38:37.050Z,37.90
2022-11-04T00:41:03.400Z,37.89
2022-11-04T00:43:29.791Z,37.85
2022-11-04T00:45:56.154Z,37.94
2022-11-04T00:48:22.516Z,37.97
2022-11-04T00:50:48.874Z,37.92
2022-11-04T00:53:15.277Z,37.97
2022-11-04T00:55:41.671Z,38.01
2022-11-04T00:58:08.033Z,37.95
2022-11-04T01:00:34.410Z,38.04
2022-11-04T01:03:00.780Z,37.90
2022-11-04T01:05:27.166Z,37.91
2022-11-04T01:07:53.568Z,37.92
2022-11-04T01:10:19.931Z,37.97
2022-11-04T01:12:46.303Z,38.05
2022-11-04T01:15:12.681Z,37.98
2022-11-04T01:17:39.075Z,38.11
2022-11-04T01:20:05.426Z,38.05
2022-11-04T01:22:31.798Z,38.08
2022-11-04T01:24:58.191Z,38.04
2022-11-04T01:27:24.544Z,38.05
2022-11-04T01:29:50.912Z,38.05
2022-11-04T01:32:17.298Z,38.00
2022-11-04T01:34:43.871Z,38.01
2022-11-04T01:37:10.043Z,38.02
2022-11-04T01:39:36.394Z,38.08
2022-11-04T01:44:30.113Z,38.12
2022-11-04T01:46:55.499Z,38.05
2022-11-04T01:49:21.888Z,38.01
2022-11-04T01:51:48.251Z,38.06
2022-11-04T01:54:14.638Z,38.07
2022-11-04T01:56:41.000Z,38.08
2022-11-04T01:59:07.383Z,38.12
2022-11-04T02:01:33.840Z,38.12
2022-11-04T02:04:00.090Z,38.09
2022-11-04T02:06:26.423Z,38.06
2022-11-04T02:08:52.802Z,38.12
2022-11-04T02:11:19.150Z,38.29
2022-11-04T02:13:45.586Z,38.41
2022-11-04T02:16:11.932Z,38.02
2022-11-04T02:18:38.270Z,38.02
2022-11-04T02:21:04.613Z,38.09
2022-11-04T02:23:30.979Z,38.08
2022-11-04T02:25:57.316Z,38.09
2022-11-04T02:28:23.657Z,38.18
2022-11-04T02:30:52.086Z,38.13
2022-11-04T02:33:18.449Z,38.08
2022-11-04T02:35:46.242Z,38.08
2022-11-04T02:38:11.149Z,38.18
2022-11-04T02:40:37.492Z,38.39
2022-11-04T02:43:03.857Z,38.18
2022-11-04T02:45:30.241Z,38.15
2022-11-04T02:47:56.572Z,37.95
2022-11-04T02:50:22.907Z,37.95
2022-11-04T02:52:51.306Z,38.23
2022-11-04T02:55:15.619Z,38.23
2022-11-04T02:57:41.953Z,38.19
2022-11-04T03:00:08.289Z,38.22
2022-11-04T03:02:34.694Z,38.38
2022-11-04T03:05:01.027Z,38.23
2022-11-04T03:07:27.388Z,38.01
2022-11-04T03:09:53.781Z,38.01
2022-11-04T03:12:20.131Z,37.97
2022-11-04T03:14:46.503Z,37.87
2022-11-04T03:17:12.895Z,37.80
2022-11-04T03:19:39.262Z,37.72
2022-11-04T03:22:05.627Z,37.60
2022-11-04T03:24:31.987Z,37.55
2022-11-04T03:26:58.389Z,37.49
2022-11-04T03:29:24.750Z,37.39
2022-11-04T03:31:51.130Z,37.36
2022-11-04T03:34:17.501Z,37.27
2022-11-04T03:36:43.885Z,37.21
2022-11-04T03:39:10.262Z,37.14
2022-11-04T03:41:36.645Z,37.10
2022-11-04T03:44:03.008Z,37.07
2022-11-04T03:46:29.407Z,37.03
2022-11-04T03:48:55.768Z,36.96
2022-11-04T03:51:22.157Z,36.94
2022-11-04T03:53:48.532Z,36.92
2022-11-04T03:56:14.888Z,36.88
2022-11-04T03:58:41.256Z,36.80
2022-11-04T04:01:07.649Z,36.78
2022-11-04T04:03:33.998Z,36.71
2022-11-04T04:06:00.334Z,36.59
2022-11-04T04:08:26.682Z,36.59
2022-11-04T04:10:53.020Z,36.61
2022-11-04T04:13:19.398Z,36.62
2022-11-04T04:15:45.737Z,36.55
2022-11-04T04:18:12.439Z,36.56
2022-11-04T04:20:38.442Z,36.51
2022-11-04T04:23:04.822Z,36.54
2022-11-04T04:25:31.157Z,36.49
2022-11-04T04:27:57.531Z,36.44
2022-11-04T04:30:23.869Z,36.43
2022-11-04T04:32:50.263Z,36.42
2022-11-04T04:35:16.591Z,36.36
2022-11-04T04:37:42.934Z,36.36
2022-11-04T04:40:09.265Z,36.37
2022-11-04T04:42:35.641Z,36.31
2022-11-04T04:45:01.972Z,36.30
2022-11-04T04:47:28.315Z,36.26
2022-11-04T04:49:54.651Z,36.23
2022-11-04T04:52:21.022Z,36.18
2022-11-04T04:54:47.386Z,36.18
2022-11-04T04:57:13.735Z,36.15
2022-11-04T04:59:40.107Z,36.11
2022-11-04T05:02:06.580Z,36.14
2022-11-04T05:04:32.795Z,36.08
2022-11-04T05:06:59.145Z,36.02
2022-11-04T05:09:25.494Z,36.02
2022-11-04T05:11:51.839Z,36.01
2022-11-04T05:14:18.203Z,36.01
2022-11-04T05:16:44.548Z,35.97
2022-11-04T05:19:10.920Z,36.00
2022-11-04T05:21:37.264Z,35.95
2022-11-04T05:24:03.615Z,35.93
2022-11-04T05:26:29.961Z,35.93
2022-11-04T05:28:56.293Z,35.88
2022-11-04T05:31:22.693Z,35.88
2022-11-04T05:33:49.024Z,35.89
2022-11-04T05:36:15.391Z,35.94
2022-11-04T05:38:41.756Z,36.04
2022-11-04T05:41:08.116Z,35.95
2022-11-04T05:43:34.481Z,36.29
2022-11-04T05:46:00.825Z,36.29
2022-11-04T05:48:27.189Z,36.47
2022-11-04T05:50:53.529Z,36.63
2022-11-04T05:53:19.967Z,39.10
2022-11-04T05:55:46.241Z,36.45
2022-11-04T05:58:12.587Z,36.47
2022-11-04T06:00:38.934Z,36.31
2022-11-04T06:03:05.348Z,36.34
2022-11-04T06:05:31.630Z,35.83
2022-11-04T06:07:57.998Z,35.83
2022-11-04T06:10:24.338Z,36.23
2022-11-04T06:12:50.678Z,36.28
2022-11-04T06:15:17.028Z,36.11
2022-11-04T06:17:43.396Z,36.14
2022-11-04T06:20:09.759Z,36.67
2022-11-04T06:22:36.095Z,36.10
2022-11-04T06:25:02.436Z,36.10
2022-11-04T06:27:28.780Z,37.26
2022-11-04T06:29:55.159Z,36.40
2022-11-04T06:32:21.498Z,36.04
2022-11-04T06:34:47.842Z,36.19
2022-11-04T06:37:14.171Z,36.38
2022-11-04T06:39:40.547Z,36.07
2022-11-04T06:42:06.904Z,35.85
2022-11-04T06:44:33.248Z,35.92
2022-11-04T06:46:59.617Z,35.99
2022-11-04T06:49:26.042Z,36.05
2022-11-04T06:51:52.383Z,35.86
2022-11-04T06:54:18.761Z,35.88
2022-11-04T06:56:45.110Z,35.83
2022-11-04T06:59:11.477Z,35.25
2022-11-04T07:01:37.862Z,35.25
2022-11-04T07:04:04.155Z,35.66
2022-11-04T07:06:30.530Z,35.66
2022-11-04T07:08:56.867Z,35.17
2022-11-04T07:11:23.231Z,35.17
2022-11-04T07:13:49.607Z,35.41
2022-11-04T07:16:15.933Z,35.97
2022-11-04T07:18:42.310Z,35.21
2022-11-04T07:21:10.169Z,35.21
2022-11-04T07:23:34.996Z,35.67
2022-11-04T07:26:01.370Z,35.67
2022-11-04T07:28:27.840Z,35.73
2022-11-04T07:30:54.173Z,35.87
2022-11-04T07:33:20.521Z,35.47
2022-11-04T07:35:47.021Z,35.79
2022-11-04T07:38:13.347Z,35.88
2022-11-04T07:40:39.716Z,35.90
2022-11-04T07:43:06.055Z,35.96
2022-11-04T07:45:32.392Z,35.92
2022-11-04T07:47:58.778Z,35.93
2022-11-04T07:50:25.227Z,35.96
2022-11-04T07:52:51.489Z,36.04
2022-11-04T07:55:17.827Z,36.04
2022-11-04T07:57:44.194Z,36.01
2022-11-04T08:00:10.536Z,35.88
2022-11-04T08:02:37.163Z,35.88
2022-11-04T08:05:03.254Z,36.11
2022-11-04T08:07:29.626Z,36.25
2022-11-04T08:09:55.975Z,36.29
2022-11-04T08:12:22.352Z,36.27
2022-11-04T08:14:48.686Z,36.47
2022-11-04T08:17:15.066Z,36.47
2022-11-04T08:19:41.390Z,36.32
2022-11-04T08:22:07.784Z,36.32
2022-11-04T08:24:35.494Z,36.45
2022-11-04T08:27:00.478Z,36.30
2022-11-04T08:29:26.848Z,36.46
2022-11-04T08:31:53.194Z,36.50
2022-11-04T08:34:19.569Z,36.63
2022-11-04T08:36:45.924Z,36.63
2022-11-04T08:39:12.310Z,36.46
2022-11-04T08:41:38.681Z,36.41
2022-11-04T08:44:05.069Z,36.44
2022-11-04T08:46:31.438Z,36.57
2022-11-04T08:48:57.894Z,36.71
2022-11-04T08:51:24.250Z,37.05
2022-11-04T08:53:50.630Z,37.76
2022-11-04T08:56:16.979Z,37.76
2022-11-04T08:58:43.397Z,37.92
2022-11-04T09:01:09.736Z,38.03
2022-11-04T09:03:36.165Z,38.03
2022-11-04T09:06:02.494Z,37.62
2022-11-04T09:08:28.854Z,37.38
2022-11-04T09:10:55.236Z,37.38
2022-11-04T09:13:21.601Z,37.54
2022-11-04T09:15:47.986Z,37.06
2022-11-04T09:18:14.378Z,37.21
2022-11-04T09:20:40.750Z,37.40
2022-11-04T09:23:07.482Z,37.17
2022-11-04T09:25:33.495Z,37.07
2022-11-04T09:27:59.880Z,36.91
2022-11-04T09:30:26.275Z,37.20
2022-11-04T09:32:52.986Z,37.20
2022-11-04T09:35:18.987Z,36.81
2022-11-04T09:37:45.345Z,36.70
2022-11-04T09:40:11.698Z,36.66
2022-11-04T09:42:39.277Z,36.52
2022-11-04T09:45:21.332Z,35.89
2022-11-04T09:47:30.895Z,36.10
2022-11-04T09:49:57.275Z,35.99
2022-11-04T09:52:23.776Z,35.89
2022-11-04T09:54:50.053Z,35.89
2022-11-04T09:57:16.441Z,35.80
2022-11-04T09:59:42.789Z,35.84
2022-11-04T10:02:09.150Z,35.96
2022-11-04T10:04:35.464Z,35.89
2022-11-04T10:07:01.833Z,36.12
2022-11-04T10:09:28.172Z,36.17
2022-11-04T10:11:54.540Z,36.17
2022-11-04T10:14:20.871Z,36.33
2022-11-04T10:16:47.222Z,36.26
2022-11-04T10:19:13.567Z,35.85
2022-11-04T10:21:39.935Z,35.85
2022-11-04T10:24:06.322Z,36.15
2022-11-04T10:26:32.724Z,36.44
2022-11-04T10:28:59.031Z,36.52
2022-11-04T10:31:25.370Z,36.58
2022-11-04T10:33:51.708Z,36.53
2022-11-04T10:36:18.071Z,36.69
2022-11-04T10:38:44.393Z,36.20
2022-11-04T10:41:10.733Z,36.21
2022-11-04T10:43:37.101Z,36.30
2022-11-04T10:46:03.443Z,35.89
2022-11-04T10:48:29.781Z,35.89
2022-11-04T10:50:56.153Z,35.83
2022-11-04T10:53:22.525Z,35.98
2022-11-04T10:55:48.859Z,36.22
2022-11-04T10:58:15.204Z,36.51
2022-11-04T11:00:41.634Z,36.01
2022-11-04T11:03:08.095Z,36.17
2022-11-04T11:05:34.244Z,36.07
2022-11-04T11:08:01.789Z,35.63
2022-11-04T11:10:27.212Z,36.01
2022-11-04T11:12:53.582Z,36.12
2022-11-04T11:15:19.933Z,36.14
2022-11-04T11:17:46.307Z,36.31
2022-11-04T11:20:12.641Z,36.14
2022-11-04T11:22:38.971Z,36.16
2022-11-04T11:25:05.329Z,36.15
2022-11-04T11:27:31.676Z,36.18
2022-11-04T11:29:58.195Z,36.36
2022-11-04T11:32:24.603Z,36.21
2022-11-04T11:34:50.969Z,36.14
2022-11-04T11:37:17.302Z,36.22
2022-11-04T11:39:43.641Z,36.25
2022-11-04T11:42:09.983Z,36.24
2022-11-04T11:44:36.386Z,36.25
2022-11-04T11:47:02.772Z,36.29
2022-11-04T11:49:29.215Z,36.27
2022-11-04T11:51:55.451Z,36.30
2022-11-04T11:54:21.811Z,36.21
2022-11-04T11:57:15.332Z,36.36
2022-11-04T12:01:41.081Z,36.28
2022-11-04T12:06:33.741Z,36.45
2022-11-04T12:09:15.622Z,36.38
2022-11-04T12:11:26.396Z,36.16
2022-11-04T12:13:52.745Z,36.19
2022-11-04T12:16:19.114Z,36.24
2022-11-04T12:18:45.467Z,36.33
2022-11-04T12:21:11.821Z,36.32
2022-11-04T12:23:38.209Z,36.38
2022-11-04T12:26:04.590Z,36.34
2022-11-04T12:28:30.935Z,36.34
2022-11-04T12:30:57.307Z,36.35
2022-11-04T12:33:23.690Z,36.38
2022-11-04T12:35:50.022Z,36.40
2022-11-04T12:38:16.393Z,36.41
2022-11-04T12:40:42.729Z,36.43
2022-11-04T12:43:09.301Z,36.46
2022-11-04T12:45:35.416Z,36.48
2022-11-04T12:48:01.772Z,36.51
2022-11-04T12:50:28.226Z,36.47
2022-11-04T12:52:54.581Z,36.43
2022-11-04T12:55:20.918Z,36.45
2022-11-04T12:57:47.267Z,36.40
2022-11-04T13:00:13.640Z,36.40
2022-11-04T13:02:40.017Z,36.42
2022-11-04T13:05:06.395Z,36.43
2022-11-04T13:07:32.745Z,36.44
2022-11-04T13:09:59.109Z,36.39
2022-11-04T13:12:25.446Z,36.39
2022-11-04T13:14:51.784Z,36.46
2022-11-04T13:17:18.125Z,36.34
2022-11-04T13:19:44.506Z,36.37
2022-11-04T13:22:10.851Z,36.46
2022-11-04T13:24:37.236Z,36.38
2022-11-04T13:27:03.589Z,36.46
2022-11-04T13:29:29.921Z,36.50
2022-11-04T13:31:56.262Z,36.58
2022-11-04T13:34:23.444Z,36.54
2022-11-04T13:36:48.982Z,36.43
2022-11-04T13:39:15.319Z,36.49
2022-11-04T13:41:41.697Z,36.59
2022-11-04T13:44:08.011Z,36.59
2022-11-04T13:46:34.351Z,36.63
2022-11-04T13:49:00.707Z,37.25
2022-11-04T13:51:27.082Z,36.63
2022-11-04T13:53:53.435Z,36.63
2022-11-04T13:56:32.875Z,36.58
2022-11-04T13:58:47.213Z,36.72
2022-11-04T14:01:12.553Z,36.72
2022-11-04T14:03:38.887Z,36.66
2022-11-04T14:06:05.326Z,36.70
2022-11-04T14:08:31.668Z,36.64
2022-11-04T14:10:58.047Z,36.62
2022-11-04T14:13:24.385Z,36.66
2022-11-04T14:15:50.764Z,36.60
2022-11-04T14:18:17.117Z,36.54
2022-11-04T14:20:43.478Z,36.33
2022-11-04T14:23:10.025Z,36.37
2022-11-04T14:25:36.170Z,36.48
2022-11-04T14:28:02.601Z,36.56
2022-11-04T14:30:28.987Z,36.62
2022-11-04T14:32:55.370Z,36.50
2022-11-04T14:35:21.734Z,36.57
2022-11-04T14:37:51.908Z,36.56
2022-11-04T14:40:14.445Z,36.55
2022-11-04T14:42:40.781Z,36.59
2022-11-04T14:45:07.179Z,36.58
2022-11-04T14:47:33.524Z,36.62
2022-11-04T14:49:59.960Z,36.64
2022-11-04T14:52:26.302Z,36.57
2022-11-04T14:54:52.654Z,36.61
2022-11-04T14:57:18.997Z,36.59
2022-11-04T14:59:45.388Z,36.59
2022-11-04T15:02:11.857Z,36.57
2022-11-04T15:04:38.059Z,36.60
2022-11-04T15:07:04.394Z,36.55
2022-11-04T15:09:30.748Z,36.63
2022-11-04T15:11:57.113Z,36.59
2022-11-04T15:14:23.476Z,36.62
2022-11-04T15:16:49.813Z,36.63
2022-11-04T15:19:16.176Z,36.62
2022-11-04T15:21:42.541Z,36.62
2022-11-04T15:24:08.904Z,36.54
2022-11-04T15:26:35.242Z,36.58
2022-11-04T15:29:01.615Z,36.50
2022-11-04T15:31:27.948Z,36.54
2022-11-04T15:33:54.296Z,36.45
2022-11-04T15:36:20.670Z,36.44
2022-11-04T15:38:47.026Z,36.50
2022-11-04T15:41:13.392Z,36.45
2022-11-04T15:43:39.739Z,36.36
2022-11-04T15:46:06.102Z,36.36
2022-11-04T15:48:32.486Z,36.45
2022-11-04T15:50:58.855Z,36.44
2022-11-04T15:53:25.202Z,36.43
2022-11-04T15:55:52.787Z,36.39
2022-11-04T15:58:17.940Z,36.44
2022-11-04T16:00:44.335Z,36.38
2022-11-04T16:03:10.856Z,36.32
2022-11-04T16:05:36.950Z,36.34
2022-11-04T16:08:03.320Z,36.32
2022-11-04T16:10:29.652Z,36.25
2022-11-04T16:12:56.062Z,36.26
2022-11-04T16:15:24.384Z,36.26
2022-11-04T16:17:48.765Z,36.26
2022-11-04T16:20:15.140Z,36.23
2022-11-04T16:22:41.488Z,36.24
2022-11-04T16:25:07.821Z,36.15
2022-11-04T16:27:34.227Z,36.16
2022-11-04T16:30:00.601Z,36.12
2022-11-04T16:32:26.921Z,36.04
2022-11-04T16:34:54.202Z,36.04
2022-11-04T16:37:19.600Z,36.04
2022-11-04T16:39:45.932Z,35.95
2022-11-04T16:42:12.274Z,36.06
2022-11-04T16:44:38.607Z,36.01
2022-11-04T16:47:04.999Z,35.95
2022-11-04T16:49:31.358Z,35.98
2022-11-04T16:51:57.732Z,35.95
2022-11-04T16:54:24.097Z,35.96
2022-11-04T16:56:50.435Z,35.96
2022-11-04T16:59:16.869Z,35.91
2022-11-04T17:01:43.327Z,35.91
2022-11-04T17:04:09.559Z,35.92
2022-11-04T17:06:35.918Z,35.96
2022-11-04T17:09:02.238Z,35.93
2022-11-04T17:11:28.588Z,35.87
2022-11-04T17:13:54.949Z,35.86
2022-11-04T17:16:21.289Z,35.84
2022-11-04T17:18:47.611Z,35.80
2022-11-04T17:21:13.993Z,35.84
2022-11-04T17:23:40.341Z,35.89
2022-11-04T17:26:06.742Z,35.77
2022-11-04T17:28:33.099Z,35.72
2022-11-04T17:30:59.451Z,35.77
2022-11-04T17:33:25.819Z,35.81
2022-11-04T17:35:52.158Z,35.74
2022-11-04T17:38:18.485Z,35.71
2022-11-04T17:40:44.828Z,35.72
2022-11-04T17:43:12.659Z,36.16
2022-11-04T17:45:37.499Z,36.16
2022-11-04T17:48:03.872Z,35.77
2022-11-04T17:50:30.201Z,35.72
2022-11-04T17:52:56.601Z,35.81
2022-11-04T17:55:27.307Z,35.74
2022-11-04T17:57:49.371Z,35.74
2022-11-04T18:00:15.687Z,35.74
2022-11-04T18:02:42.164Z,35.66
2022-11-04T18:05:08.391Z,35.67
2022-11-04T18:07:34.763Z,35.69
2022-11-04T18:10:01.101Z,35.98
2022-11-04T18:12:27.463Z,35.55
2022-11-04T18:14:53.828Z,35.55
2022-11-04T18:17:20.171Z,35.63
2022-11-04T18:19:46.536Z,35.68
2022-11-04T18:22:12.869Z,35.62
2022-11-04T18:24:39.351Z,35.62
2022-11-04T18:27:05.600Z,35.57
2022-11-04T18:29:31.942Z,35.60
2022-11-04T18:31:58.313Z,35.49
2022-11-04T18:34:24.650Z,35.55
2022-11-04T18:36:51.039Z,35.52
2022-11-04T18:39:17.419Z,35.53
2022-11-04T18:41:43.752Z,35.54
2022-11-04T18:44:10.095Z,35.52
2022-11-04T18:46:36.463Z,35.42
2022-11-04T18:51:45.111Z,35.28
2022-11-04T18:54:11.487Z,35.28
2022-11-04T18:56:37.792Z,35.21
2022-11-04T18:59:04.132Z,35.65
2022-11-04T19:01:30.563Z,35.04
2022-11-04T19:03:56.815Z,35.04
2022-11-04T19:06:23.151Z,35.42
2022-11-04T19:08:49.572Z,35.42
2022-11-04T19:11:15.918Z,35.40
2022-11-04T19:13:42.283Z,36.12
2022-11-04T19:16:08.620Z,36.10
2022-11-04T19:18:35.027Z,36.10
2022-11-04T19:21:01.382Z,35.67
2022-11-04T19:23:27.751Z,35.80
2022-11-04T19:25:58.076Z,35.83
2022-11-04T19:28:37.317Z,35.97
2022-11-04T19:30:46.801Z,36.60
2022-11-04T19:33:13.140Z,36.15
2022-11-04T19:35:39.469Z,36.15
2022-11-04T19:38:05.817Z,35.70
2022-11-04T19:40:32.181Z,35.79
2022-11-04T19:42:58.512Z,36.20
2022-11-04T19:45:24.877Z,36.12
2022-11-04T19:47:51.210Z,36.41
2022-11-04T19:50:17.540Z,36.15
2022-11-04T19:52:43.891Z,36.15
2022-11-04T19:55:10.259Z,36.23
2022-11-04T19:57:36.599Z,36.07
2022-11-04T20:00:03.021Z,36.24
2022-11-04T20:02:29.417Z,36.26
2022-11-04T20:04:55.697Z,36.48
2022-11-04T20:07:22.079Z,35.85
2022-11-04T20:09:48.417Z,36.32
2022-11-04T20:12:14.756Z,36.36
2022-11-04T20:14:41.087Z,36.32
2022-11-04T20:17:07.466Z,36.01
2022-11-04T20:19:33.795Z,36.51
2022-11-04T20:22:00.133Z,36.45
2022-11-04T20:24:26.501Z,36.70
2022-11-04T20:26:52.844Z,36.89
2022-11-04T20:29:19.175Z,36.89
2022-11-04T20:31:45.510Z,36.50
2022-11-04T20:34:11.877Z,36.43
2022-11-04T20:36:38.240Z,36.65
2022-11-04T20:39:04.578Z,36.53
2022-11-04T20:41:30.917Z,36.32
2022-11-04T20:43:57.253Z,36.32
2022-11-04T20:46:23.629Z,36.67
2022-11-04T20:48:49.961Z,36.61
2022-11-04T20:51:16.327Z,36.56
2022-11-04T20:53:42.656Z,36.69
2022-11-04T20:56:09.039Z,36.64
2022-11-04T20:58:35.369Z,36.82
2022-11-04T21:01:01.768Z,36.74
2022-11-04T21:03:28.047Z,36.69
2022-11-04T21:05:54.398Z,36.85
2022-11-04T21:08:20.735Z,36.80
2022-11-04T21:10:47.107Z,36.82
2022-11-04T21:13:13.437Z,36.88
2022-11-04T21:15:39.776Z,37.02
2022-11-04T21:18:06.115Z,36.92
2022-11-04T21:20:32.451Z,37.05
2022-11-04T21:22:58.819Z,37.00
2022-11-04T21:25:25.153Z,36.91
2022-11-04T21:27:51.513Z,36.93
2022-11-04T21:30:17.859Z,37.26
2022-11-04T21:32:44.263Z,37.23
2022-11-04T21:35:10.637Z,37.23
2022-11-04T21:37:37.347Z,37.11
2022-11-04T21:40:03.335Z,37.00
2022-11-04T21:42:29.734Z,37.00
2022-11-04T21:44:56.059Z,37.05
2022-11-04T21:47:22.400Z,37.10
2022-11-04T21:49:48.747Z,36.83
2022-11-04T21:52:15.111Z,37.14
2022-11-04T21:54:41.445Z,37.05
2022-11-04T21:57:07.784Z,37.18
2022-11-04T21:59:34.125Z,37.22
2022-11-04T22:02:00.663Z,37.40
2022-11-04T22:04:26.875Z,37.24
2022-11-04T22:06:53.207Z,37.23
2022-11-04T22:09:19.565Z,37.31
2022-11-04T22:11:45.905Z,37.29
2022-11-04T22:14:12.250Z,37.29
2022-11-04T22:16:38.718Z,37.42
2022-11-04T22:19:04.960Z,37.34
2022-11-04T22:21:31.319Z,37.37
2022-11-04T22:23:57.661Z,37.50
2022-11-04T22:26:24.030Z,37.65
2022-11-04T22:28:50.363Z,37.62
2022-11-04T22:31:16.697Z,37.43
2022-11-04T22:33:43.035Z,37.42
2022-11-04T22:36:09.376Z,37.49
2022-11-04T22:38:35.711Z,37.61
2022-11-04T22:41:02.080Z,37.26
2022-11-04T22:43:28.424Z,37.48
2022-11-04T22:45:54.755Z,37.53
2022-11-04T22:48:21.099Z,37.56
2022-11-04T22:50:47.464Z,37.53
2022-11-04T22:53:13.800Z,37.59
2022-11-04T22:55:40.135Z,37.70
2022-11-04T22:58:06.481Z,37.70
2022-11-04T23:00:32.817Z,37.72
2022-11-04T23:02:59.353Z,37.88
2022-11-04T23:05:25.492Z,37.69
2022-11-04T23:07:51.836Z,37.69
2022-11-04T23:10:18.201Z,37.96
2022-11-04T23:12:44.536Z,37.96
2022-11-04T23:15:10.876Z,37.99
2022-11-04T23:17:37.221Z,37.68
2022-11-04T23:20:03.599Z,37.84
2022-11-04T23:22:29.937Z,37.84
2022-11-04T23:24:56.303Z,37.74
2022-11-04T23:27:22.636Z,37.54
2022-11-04T23:29:48.975Z,37.54
2022-11-04T23:32:15.316Z,37.63
2022-11-04T23:34:41.684Z,37.71
2022-11-04T23:37:08.044Z,37.71
2022-11-04T23:39:34.390Z,37.78
2022-11-04T23:42:00.760Z,37.78
2022-11-04T23:44:27.091Z,37.63
2022-11-04T23:46:53.457Z,37.94
2022-11-04T23:49:19.852Z,37.94
2022-11-04T23:51:46.168Z,37.68
2022-11-04T23:54:12.500Z,37.91
2022-11-04T23:56:38.877Z,37.91
2022-11-04T23:59:05.209Z,37.81
